Airport Name : Eareckson As

Other Name : Eareckson As

ICAO : PASY

IATA : SYA

FAA : PSYA

Latitude : 52.712275

Longitude : 174.11362

Country : United States

Local Date and Time : 15 Jul 2024 04:56

 

TAF (Terminal Aerodrome Forecast)

TAF AMD PASY 151215Z 1512/1612 13006KT 8000 BR SCT006 OVC032 QNH2991INS TX09/1512Z TN06/1517Z

 

METAR (METeorological Aerodrome Report)

PASY 151259Z 00000KT 10SM OVC032 09/08 A2994 RMK AO2A SLP142 T00880080 PNO FZRANO $

PASY 151159Z 13003KT 10SM SCT006 OVC032 09/08 A2994 RMK AO2A SLP142 T00890081 10111 20086 53001 PNO FZRANO $

PASY 151059Z 12004KT 10SM OVC006 09/08 A2994 RMK AO2A SLP142 T00910080 RVRNO PNO FZRANO $

PASY 151036Z 10003KT 10SM OVC006 09/08 A2994 RMK AO2A SLP142 RVRNO PNO FZRANO $